createdAt,value
2023-05-10T00:02:20.959Z,5.70
2023-05-10T00:04:49.486Z,5.90
2023-05-10T00:07:20.992Z,5.70
2023-05-10T00:09:49.348Z,5.50
2023-05-10T00:12:17.868Z,6.10
2023-05-10T00:14:46.389Z,5.50
2023-05-10T00:17:15.277Z,6.90
2023-05-10T00:19:43.626Z,6.40
2023-05-10T00:22:11.992Z,6.00
2023-05-10T00:24:40.386Z,6.60
2023-05-10T00:27:08.799Z,5.90
2023-05-10T00:29:37.114Z,6.40
2023-05-10T00:32:05.991Z,6.50
2023-05-10T00:34:34.402Z,6.40
2023-05-10T00:37:03.542Z,6.70
2023-05-10T00:39:32.114Z,6.60
2023-05-10T00:42:01.251Z,7.10
2023-05-10T00:44:29.631Z,6.40
2023-05-10T00:46:59.334Z,6.90
2023-05-10T00:49:28.080Z,6.70
2023-05-10T00:51:56.813Z,6.70
2023-05-10T00:54:25.680Z,7.00
2023-05-10T00:56:54.304Z,6.30
2023-05-10T00:59:22.794Z,6.40
2023-05-10T01:01:52.593Z,5.80
2023-05-10T01:04:26.768Z,6.80
2023-05-10T01:06:55.288Z,6.30
2023-05-10T01:09:26.235Z,6.80
2023-05-10T01:11:55.446Z,7.30
2023-05-10T01:14:24.671Z,6.20
2023-05-10T01:16:54.255Z,7.00
2023-05-10T01:19:30.686Z,6.80
2023-05-10T01:22:26.487Z,6.70
2023-05-10T01:25:17.867Z,7.00
2023-05-10T01:28:04.761Z,6.80
2023-05-10T01:30:54.896Z,6.70
2023-05-10T01:33:31.062Z,7.80
2023-05-10T01:39:20.144Z,7.40
2023-05-10T01:42:20.992Z,6.30
2023-05-10T01:45:14.438Z,6.20
2023-05-10T01:47:54.273Z,6.30
2023-05-10T01:50:30.548Z,6.80
2023-05-10T01:53:01.317Z,6.80
2023-05-10T01:55:40.446Z,7.90
2023-05-10T01:58:14.343Z,7.80
2023-05-10T02:00:47.251Z,7.10
2023-05-10T02:03:19.530Z,7.80
2023-05-10T02:05:50.354Z,6.80
2023-05-10T02:08:20.121Z,6.60
2023-05-10T02:10:51.513Z,6.70
2023-05-10T02:13:20.894Z,6.70
2023-05-10T02:15:51.321Z,7.40
2023-05-10T02:22:51.572Z,7.80
2023-05-10T02:25:23.237Z,6.80
2023-05-10T02:27:54.757Z,6.70
2023-05-10T02:30:24.873Z,7.10
2023-05-10T02:32:53.759Z,7.00
2023-05-10T02:35:24.078Z,7.70
2023-05-10T02:37:54.302Z,6.50
2023-05-10T02:40:26.178Z,6.70
2023-05-10T02:43:00.281Z,6.80
2023-05-10T02:45:33.257Z,6.80
2023-05-10T02:48:02.255Z,6.20
2023-05-10T02:50:34.426Z,7.30
2023-05-10T02:53:10.779Z,5.90
2023-05-10T02:55:42.693Z,7.40
2023-05-10T02:58:11.150Z,7.60
2023-05-10T03:00:39.638Z,6.00
2023-05-10T03:03:08.712Z,6.50
2023-05-10T03:05:37.088Z,7.10
2023-05-10T03:08:06.093Z,7.90
2023-05-10T03:16:23.291Z,7.80
2023-05-10T03:19:13.140Z,7.40
2023-05-10T03:21:48.388Z,7.50
2023-05-10T03:26:46.692Z,7.00
2023-05-10T03:29:16.086Z,7.10
2023-05-10T03:31:44.616Z,7.00
2023-05-10T03:34:13.008Z,7.20
2023-05-10T03:36:41.298Z,6.10
2023-05-10T03:39:10.010Z,6.90
2023-05-10T03:41:38.366Z,7.70
2023-05-10T03:44:06.664Z,7.20
2023-05-10T03:46:35.064Z,6.90
2023-05-10T03:49:03.775Z,7.90
2023-05-10T03:51:32.635Z,7.70
2023-05-10T03:54:00.990Z,8.40
2023-05-10T03:56:29.280Z,7.50
2023-05-10T03:58:57.771Z,8.50
2023-05-10T04:01:26.178Z,7.10
2023-05-10T04:03:54.634Z,7.30
2023-05-10T04:06:23.257Z,8.10
2023-05-10T04:08:51.849Z,7.90
2023-05-10T04:11:23.313Z,8.00
2023-05-10T04:13:52.077Z,7.60
2023-05-10T04:16:20.425Z,6.90
2023-05-10T04:18:49.513Z,7.60
2023-05-10T04:21:17.829Z,7.60
2023-05-10T04:23:46.261Z,7.30
2023-05-10T04:26:14.690Z,6.80
2023-05-10T04:28:43.028Z,7.00
2023-05-10T04:31:11.554Z,8.00
2023-05-10T04:33:39.982Z,7.30
2023-05-10T04:36:08.799Z,7.70
2023-05-10T04:38:37.224Z,6.50
2023-05-10T04:41:10.055Z,7.20
2023-05-10T04:43:39.393Z,6.50
2023-05-10T04:46:08.546Z,7.90
2023-05-10T04:48:37.026Z,8.30
2023-05-10T04:51:05.834Z,6.70
2023-05-10T04:53:34.694Z,6.90
2023-05-10T04:56:03.147Z,6.90
2023-05-10T04:58:31.566Z,6.10
2023-05-10T05:01:11.773Z,6.90
2023-05-10T05:03:40.291Z,7.70
2023-05-10T05:06:08.837Z,6.30
2023-05-10T05:08:37.107Z,6.60
2023-05-10T05:11:05.465Z,6.70
2023-05-10T05:13:33.923Z,7.20
2023-05-10T05:16:03.756Z,7.10
2023-05-10T05:18:32.492Z,7.50
2023-05-10T05:21:01.043Z,8.20
2023-05-10T05:23:29.561Z,7.30
2023-05-10T05:25:57.968Z,7.10
2023-05-10T05:28:26.355Z,8.00
2023-05-10T05:30:54.731Z,6.80
2023-05-10T05:33:23.142Z,6.70
2023-05-10T05:35:51.847Z,5.20
2023-05-10T05:38:20.237Z,7.80
2023-05-10T05:40:48.549Z,6.60
2023-05-10T05:43:17.017Z,6.00
2023-05-10T05:45:45.986Z,9.10
2023-05-10T05:48:14.413Z,6.90
2023-05-10T06:02:52.275Z,6.00
2023-05-10T06:05:21.285Z,6.90
2023-05-10T06:13:17.318Z,5.30
2023-05-10T06:15:46.383Z,6.50
2023-05-10T06:18:14.772Z,6.10
2023-05-10T06:20:44.606Z,5.40
2023-05-10T06:23:12.998Z,7.10
2023-05-10T06:26:06.169Z,5.90
2023-05-10T06:28:34.680Z,6.40
2023-05-10T06:31:03.479Z,6.10
2023-05-10T06:33:32.328Z,6.20
2023-05-10T06:36:00.884Z,5.70
2023-05-10T06:38:29.245Z,5.30
2023-05-10T06:40:58.161Z,5.90
2023-05-10T06:43:27.314Z,5.60
2023-05-10T06:45:55.633Z,5.50
2023-05-10T06:48:24.453Z,5.40
2023-05-10T06:50:52.901Z,4.70
2023-05-10T06:53:21.426Z,5.80
2023-05-10T06:55:51.799Z,6.30
2023-05-10T07:01:13.827Z,4.70
2023-05-10T07:03:42.284Z,5.30
2023-05-10T07:06:21.769Z,6.20
2023-05-10T07:08:54.177Z,4.90
2023-05-10T07:11:22.873Z,5.40
2023-05-10T07:13:51.209Z,5.70
2023-05-10T07:16:19.826Z,5.20
2023-05-10T07:18:48.266Z,6.10
2023-05-10T07:21:17.050Z,5.20
2023-05-10T07:23:45.538Z,5.40
2023-05-10T07:26:13.978Z,4.90
2023-05-10T07:28:42.920Z,4.30
2023-05-10T07:31:11.613Z,4.50
2023-05-10T07:35:06.542Z,4.80
2023-05-10T07:37:34.959Z,4.00
2023-05-10T07:40:03.945Z,3.80
2023-05-10T07:42:32.272Z,3.80
2023-05-10T07:45:01.219Z,4.40
2023-05-10T07:47:29.716Z,4.20
2023-05-10T07:49:58.895Z,4.70
2023-05-10T07:52:27.311Z,3.90
2023-05-10T07:54:58.059Z,4.40
2023-05-10T07:57:26.525Z,3.80
2023-05-10T07:59:54.951Z,4.20
2023-05-10T08:02:23.368Z,3.80
2023-05-10T08:04:52.616Z,3.00
2023-05-10T08:07:20.998Z,2.90
2023-05-10T08:09:49.320Z,3.40
2023-05-10T08:12:17.722Z,3.20
2023-05-10T08:14:46.528Z,3.50
2023-05-10T08:17:14.917Z,3.60
2023-05-10T08:19:43.277Z,3.00
2023-05-10T08:22:11.886Z,3.60
2023-05-10T08:24:40.285Z,4.00
2023-05-10T08:27:09.640Z,3.20
2023-05-10T08:29:49.567Z,3.20
2023-05-10T08:32:19.043Z,3.40
2023-05-10T08:34:47.471Z,3.60
2023-05-10T08:37:15.825Z,3.00
2023-05-10T08:39:44.172Z,5.20
2023-05-10T08:42:13.603Z,3.60
2023-05-10T08:44:43.421Z,3.10
2023-05-10T08:47:12.708Z,2.70
2023-05-10T08:49:42.749Z,2.90
2023-05-10T08:52:14.164Z,2.90
2023-05-10T08:54:42.859Z,3.30
2023-05-10T08:57:12.550Z,3.50
2023-05-10T08:59:41.034Z,3.20
2023-05-10T09:02:12.697Z,3.30
2023-05-10T09:04:41.597Z,3.40
2023-05-10T09:07:10.016Z,3.10
2023-05-10T09:09:38.499Z,2.90
2023-05-10T09:12:07.786Z,2.50
2023-05-10T09:14:37.081Z,2.90
2023-05-10T09:17:05.849Z,3.40
2023-05-10T09:19:34.637Z,3.20
2023-05-10T09:22:03.647Z,2.50
2023-05-10T09:24:32.172Z,2.90
2023-05-10T09:27:01.010Z,3.40
2023-05-10T09:29:41.572Z,3.00
2023-05-10T09:32:10.253Z,3.30
2023-05-10T09:34:41.161Z,3.60
2023-05-10T09:37:09.541Z,3.00
2023-05-10T09:39:38.961Z,3.30
2023-05-10T09:42:10.511Z,3.20
2023-05-10T09:44:39.361Z,3.40
2023-05-10T09:47:07.972Z,2.70
2023-05-10T09:49:36.407Z,2.70
2023-05-10T09:52:07.950Z,3.20
2023-05-10T09:54:37.034Z,3.20
2023-05-10T09:57:06.045Z,2.50
2023-05-10T09:59:36.341Z,2.80
2023-05-10T10:02:04.826Z,3.40
2023-05-10T10:04:40.001Z,4.90
2023-05-10T10:07:08.502Z,3.00
2023-05-10T10:09:36.874Z,3.00
2023-05-10T10:12:06.005Z,3.30
2023-05-10T10:14:35.438Z,6.30
2023-05-10T10:17:08.088Z,3.20
2023-05-10T10:19:38.100Z,3.50
2023-05-10T10:22:07.049Z,2.70
2023-05-10T10:34:00.847Z,3.50
2023-05-10T10:36:29.533Z,2.80
2023-05-10T10:39:02.538Z,5.20
2023-05-10T10:41:36.118Z,3.60
2023-05-10T10:44:28.941Z,2.90
2023-05-10T10:47:07.144Z,3.40
2023-05-10T10:49:58.997Z,2.50
2023-05-10T10:52:42.442Z,2.40
2023-05-10T10:55:15.191Z,2.50
2023-05-10T10:57:52.952Z,2.40
2023-05-10T11:00:38.445Z,2.90
2023-05-10T11:03:13.355Z,2.30
2023-05-10T11:05:44.936Z,1.90
2023-05-10T11:08:22.045Z,2.40
2023-05-10T11:10:59.768Z,2.20
2023-05-10T11:13:33.725Z,4.10
2023-05-10T11:16:13.981Z,2.20
2023-05-10T11:22:18.062Z,2.00
2023-05-10T11:25:02.150Z,2.20
2023-05-10T11:27:30.491Z,2.10
2023-05-10T11:29:58.834Z,2.40
2023-05-10T11:32:27.845Z,2.20
2023-05-10T11:34:56.295Z,2.40
2023-05-10T11:37:33.366Z,2.00
2023-05-10T11:40:01.870Z,2.50
2023-05-10T11:42:31.193Z,2.30
2023-05-10T11:45:02.148Z,2.50
2023-05-10T11:47:30.751Z,2.70
2023-05-10T11:50:00.007Z,1.70
2023-05-10T11:52:28.399Z,2.30
2023-05-10T11:54:58.625Z,2.10
2023-05-10T11:57:29.683Z,1.80
2023-05-10T11:59:58.506Z,2.00
2023-05-10T12:02:27.057Z,2.80
2023-05-10T12:04:57.082Z,2.20
2023-05-10T12:07:27.693Z,1.90
2023-05-10T12:10:10.751Z,2.00
2023-05-10T12:12:42.929Z,2.00
2023-05-10T12:15:21.293Z,2.00
2023-05-10T12:17:51.494Z,2.10
2023-05-10T12:20:23.228Z,1.90
2023-05-10T12:23:00.218Z,2.30
2023-05-10T12:25:34.549Z,1.60
2023-05-10T12:28:09.428Z,2.30
2023-05-10T12:30:38.782Z,1.80
2023-05-10T12:33:15.920Z,2.60
2023-05-10T12:36:04.538Z,1.90
2023-05-10T12:38:39.452Z,2.00
2023-05-10T12:41:11.170Z,1.80
2023-05-10T12:43:41.120Z,3.10
2023-05-10T12:46:15.139Z,1.70
2023-05-10T12:51:18.549Z,1.80
2023-05-10T12:53:49.660Z,2.10
2023-05-10T12:56:18.332Z,2.70
2023-05-10T12:58:49.327Z,1.80
2023-05-10T13:01:18.013Z,1.80
2023-05-10T13:03:46.565Z,1.80
2023-05-10T13:06:15.206Z,1.50
2023-05-10T13:08:43.584Z,1.60
2023-05-10T13:11:18.041Z,1.60
2023-05-10T13:13:46.540Z,1.50
2023-05-10T13:16:14.982Z,1.40
2023-05-10T13:18:43.410Z,1.60
2023-05-10T13:21:12.353Z,1.90
2023-05-10T13:23:40.700Z,1.80
2023-05-10T13:26:09.707Z,6.40
2023-05-10T13:28:39.831Z,10.30
2023-05-10T13:31:08.740Z,1.90
2023-05-10T13:33:37.092Z,1.20
2023-05-10T13:36:07.152Z,2.50
2023-05-10T13:38:35.664Z,5.50
2023-05-10T13:41:04.554Z,2.60
2023-05-10T13:43:32.895Z,5.20
2023-05-10T13:46:01.517Z,9.20
2023-05-10T13:48:29.906Z,2.40
2023-05-10T13:50:58.382Z,1.60
2023-05-10T13:53:26.811Z,1.70
2023-05-10T13:55:55.196Z,1.70
2023-05-10T13:58:27.005Z,2.40
2023-05-10T14:00:55.390Z,2.30
2023-05-10T14:03:23.796Z,1.60
2023-05-10T14:05:52.314Z,1.30
2023-05-10T14:08:21.200Z,1.40
2023-05-10T14:10:51.896Z,1.60
2023-05-10T14:13:21.245Z,1.30
2023-05-10T14:15:49.795Z,1.40
2023-05-10T14:18:18.575Z,1.10
2023-05-10T14:20:46.955Z,1.30
2023-05-10T14:23:15.319Z,1.10
2023-05-10T14:25:44.483Z,1.20
2023-05-10T14:28:13.769Z,1.30
2023-05-10T14:30:42.233Z,1.30
2023-05-10T14:33:11.095Z,1.50
2023-05-10T14:35:40.034Z,1.50
2023-05-10T14:38:08.483Z,1.30
2023-05-10T14:40:36.804Z,1.40
2023-05-10T14:43:05.346Z,1.30
2023-05-10T14:45:34.548Z,1.30
2023-05-10T14:48:07.236Z,2.10
2023-05-10T14:50:37.380Z,1.90
2023-05-10T14:53:06.298Z,1.40
2023-05-10T14:55:36.184Z,1.30
2023-05-10T14:58:12.228Z,1.70
2023-05-10T15:00:42.575Z,1.40
2023-05-10T15:03:11.744Z,1.80
2023-05-10T15:05:40.676Z,1.80
2023-05-10T15:08:10.270Z,1.40
2023-05-10T15:10:38.767Z,1.30
2023-05-10T15:13:07.274Z,1.80
2023-05-10T15:15:35.685Z,1.50
2023-05-10T15:18:04.456Z,1.50
2023-05-10T15:20:33.176Z,1.50
2023-05-10T15:23:02.195Z,1.50
2023-05-10T15:25:30.589Z,1.40
2023-05-10T15:27:58.948Z,1.50
2023-05-10T15:30:27.787Z,1.40
2023-05-10T15:32:56.989Z,1.60
2023-05-10T15:35:27.245Z,2.00
2023-05-10T15:37:55.865Z,1.60
2023-05-10T15:40:24.324Z,1.60
2023-05-10T15:42:52.702Z,1.60
2023-05-10T15:45:21.005Z,1.70
2023-05-10T15:47:49.384Z,2.10
2023-05-10T15:50:17.928Z,7.60
2023-05-10T15:52:46.317Z,1.30
2023-05-10T15:55:15.451Z,1.20
2023-05-10T15:57:44.841Z,1.20
2023-05-10T16:00:14.160Z,1.60
2023-05-10T16:02:42.816Z,1.70
2023-05-10T16:05:11.502Z,1.60
2023-05-10T16:07:41.793Z,1.70
2023-05-10T16:10:11.289Z,1.70
2023-05-10T16:12:40.611Z,1.60
2023-05-10T16:15:09.491Z,1.70
2023-05-10T16:17:40.034Z,1.50
2023-05-10T16:20:09.077Z,1.60
2023-05-10T16:22:37.553Z,1.90
2023-05-10T16:25:06.867Z,1.50
2023-05-10T16:27:35.345Z,1.40
2023-05-10T16:30:04.271Z,1.50
2023-05-10T16:32:32.689Z,1.50
2023-05-10T16:35:01.091Z,1.80
2023-05-10T16:37:29.522Z,1.40
2023-05-10T16:39:57.947Z,1.80
2023-05-10T16:42:28.331Z,1.70
2023-05-10T16:44:56.668Z,2.10
2023-05-10T16:47:26.979Z,2.30
2023-05-10T16:49:55.474Z,2.30
2023-05-10T16:52:23.956Z,1.80
2023-05-10T16:54:54.648Z,2.70
2023-05-10T16:57:23.314Z,2.20
2023-05-10T16:59:56.252Z,1.60
2023-05-10T17:02:25.851Z,2.10
2023-05-10T17:04:56.178Z,1.50
2023-05-10T17:07:26.377Z,2.00
2023-05-10T17:09:54.797Z,1.60
2023-05-10T17:12:23.239Z,1.70
2023-05-10T17:14:51.774Z,2.00
2023-05-10T17:17:20.036Z,1.60
2023-05-10T17:19:48.438Z,1.20
2023-05-10T17:22:16.952Z,1.70
2023-05-10T17:24:45.813Z,2.10
2023-05-10T17:27:14.176Z,2.10
2023-05-10T17:29:43.009Z,2.00
2023-05-10T17:32:11.420Z,2.30
2023-05-10T17:34:40.150Z,2.30
2023-05-10T17:37:09.500Z,1.90
2023-05-10T17:39:39.831Z,2.60
2023-05-10T17:42:08.582Z,2.20
2023-05-10T17:44:36.877Z,2.30
2023-05-10T17:47:06.494Z,2.20
2023-05-10T17:49:35.020Z,2.30
2023-05-10T17:52:03.575Z,2.70
2023-05-10T17:54:32.155Z,2.80
2023-05-10T17:57:01.712Z,2.90
2023-05-10T17:59:30.050Z,4.00
2023-05-10T18:01:58.547Z,3.80
2023-05-10T18:04:27.384Z,2.60
2023-05-10T18:07:01.363Z,2.40
2023-05-10T18:09:30.131Z,3.00
2023-05-10T18:11:59.656Z,3.90
2023-05-10T18:14:39.858Z,3.40
2023-05-10T18:17:10.085Z,3.30
2023-05-10T18:19:39.969Z,2.80
2023-05-10T18:22:10.651Z,2.70
2023-05-10T18:24:40.042Z,3.50
2023-05-10T18:27:09.575Z,3.50
2023-05-10T18:29:38.378Z,4.50
2023-05-10T18:32:06.980Z,5.70
2023-05-10T18:34:35.537Z,7.40
2023-05-10T18:37:09.675Z,5.30
2023-05-10T18:39:38.212Z,3.90
2023-05-10T18:42:07.377Z,5.10
2023-05-10T18:44:35.800Z,4.20
2023-05-10T18:47:04.224Z,4.10
2023-05-10T18:49:32.772Z,4.50
2023-05-10T18:52:01.204Z,4.10
2023-05-10T18:54:30.063Z,3.00
2023-05-10T18:56:58.910Z,3.20
2023-05-10T18:59:28.071Z,3.90
2023-05-10T19:01:57.574Z,3.60
2023-05-10T19:04:26.210Z,3.80
2023-05-10T19:06:56.022Z,3.90
2023-05-10T19:09:27.103Z,3.90
2023-05-10T19:11:56.027Z,3.20
2023-05-10T19:14:25.503Z,3.70
2023-05-10T19:16:54.544Z,5.10
2023-05-10T19:19:24.923Z,6.70
2023-05-10T19:21:55.578Z,2.90
2023-05-10T19:24:25.601Z,3.00
2023-05-10T19:26:55.849Z,2.90
2023-05-10T19:29:26.554Z,2.50
2023-05-10T19:31:55.080Z,4.10
2023-05-10T19:34:23.602Z,3.80
2023-05-10T19:36:52.215Z,4.30
2023-05-10T19:39:20.725Z,3.90
2023-05-10T19:41:50.301Z,4.00
2023-05-10T19:44:19.560Z,4.00
2023-05-10T19:46:48.319Z,3.60
2023-05-10T19:49:17.613Z,9.00
2023-05-10T19:51:46.913Z,7.40
2023-05-10T19:54:15.432Z,4.90
2023-05-10T19:56:43.864Z,6.50
2023-05-10T19:59:12.264Z,6.30
2023-05-10T20:01:40.705Z,7.00
2023-05-10T20:04:10.237Z,6.50
2023-05-10T20:06:39.051Z,7.00
2023-05-10T20:09:07.512Z,7.40
2023-05-10T20:11:36.120Z,7.30
2023-05-10T20:14:05.119Z,7.30
2023-05-10T20:16:33.532Z,7.40
2023-05-10T20:19:02.146Z,6.50
2023-05-10T20:21:30.803Z,5.50
2023-05-10T20:23:59.187Z,6.00
2023-05-10T20:26:28.969Z,6.40
2023-05-10T20:28:57.912Z,6.90
2023-05-10T20:31:26.443Z,6.90
2023-05-10T20:33:54.935Z,6.70
2023-05-10T20:36:23.536Z,7.60
2023-05-10T20:38:51.945Z,6.60
2023-05-10T20:41:20.285Z,6.70
2023-05-10T20:43:48.578Z,6.60
2023-05-10T20:46:17.157Z,6.90
2023-05-10T20:48:45.530Z,6.80
2023-05-10T20:51:13.911Z,5.40
2023-05-10T20:53:42.293Z,6.00
2023-05-10T20:56:10.777Z,5.90
2023-05-10T20:58:39.148Z,5.60
2023-05-10T21:01:07.536Z,5.40
2023-05-10T21:03:35.982Z,5.10
2023-05-10T21:06:04.463Z,4.80
2023-05-10T21:08:32.852Z,6.20
2023-05-10T21:11:06.517Z,5.10
2023-05-10T21:13:36.254Z,5.10
2023-05-10T21:16:04.811Z,4.80
2023-05-10T21:18:33.191Z,4.90
2023-05-10T21:21:01.665Z,4.60
2023-05-10T21:23:30.054Z,5.20
2023-05-10T21:25:59.136Z,4.60
2023-05-10T21:28:27.499Z,4.90
2023-05-10T21:30:55.936Z,5.00
2023-05-10T21:33:24.313Z,4.40
2023-05-10T21:35:52.701Z,4.00
2023-05-10T21:38:21.167Z,4.80
2023-05-10T21:40:49.509Z,3.90
2023-05-10T21:43:17.811Z,4.60
2023-05-10T21:45:46.347Z,4.80
2023-05-10T21:48:14.919Z,4.50
2023-05-10T21:50:43.841Z,4.50
2023-05-10T21:53:12.217Z,5.10
2023-05-10T21:55:40.632Z,4.30
2023-05-10T21:58:09.031Z,4.20
2023-05-10T22:00:37.485Z,4.50
2023-05-10T22:03:05.983Z,4.70
2023-05-10T22:05:34.467Z,4.40
2023-05-10T22:08:03.052Z,4.10
2023-05-10T22:10:31.630Z,3.80
2023-05-10T22:13:00.402Z,4.80
2023-05-10T22:15:28.908Z,5.60
2023-05-10T22:17:57.297Z,4.00
2023-05-10T22:20:25.685Z,4.10
2023-05-10T22:22:55.751Z,4.30
2023-05-10T22:25:24.157Z,3.90
2023-05-10T22:27:52.488Z,4.40
2023-05-10T22:30:21.297Z,4.20
2023-05-10T22:32:49.722Z,4.20
2023-05-10T22:35:18.162Z,5.70
2023-05-10T22:37:46.461Z,4.20
2023-05-10T22:40:15.140Z,4.40
2023-05-10T22:42:43.698Z,4.00
2023-05-10T22:45:12.097Z,4.90
2023-05-10T22:47:40.939Z,4.60
2023-05-10T22:50:09.687Z,4.10
2023-05-10T22:52:39.382Z,4.60
2023-05-10T22:55:08.489Z,4.40
2023-05-10T22:57:37.270Z,4.20
2023-05-10T23:00:06.901Z,4.70
2023-05-10T23:02:35.447Z,3.80
2023-05-10T23:05:05.376Z,4.10
2023-05-10T23:07:34.330Z,4.70
2023-05-10T23:10:02.611Z,4.50
2023-05-10T23:12:31.512Z,4.30
2023-05-10T23:15:00.025Z,4.30
2023-05-10T23:17:29.287Z,4.60
2023-05-10T23:19:57.808Z,5.20
2023-05-10T23:22:26.388Z,4.90
2023-05-10T23:24:54.930Z,5.00
2023-05-10T23:27:23.314Z,4.50
2023-05-10T23:29:55.605Z,4.20
2023-05-10T23:32:24.472Z,4.40
2023-05-10T23:34:53.265Z,4.60
2023-05-10T23:37:21.708Z,4.20
2023-05-10T23:39:50.260Z,4.40
2023-05-10T23:42:18.618Z,4.90
2023-05-10T23:44:47.236Z,4.80
2023-05-10T23:47:15.657Z,4.60
2023-05-10T23:49:44.323Z,4.90
2023-05-10T23:52:12.708Z,4.30
2023-05-10T23:54:42.257Z,5.40
2023-05-10T23:57:11.764Z,4.80
2023-05-10T23:59:40.158Z,4.50
